sensor_id;sensor_type;location;lat;lon;timestamp;P1;durP1;ratioP1;P2;durP2;ratioP2
47481;SDS011;33219;47.410;9.730;2023-02-01T00:00:39;25.03;;;14.13;;
47481;SDS011;33219;47.410;9.730;2023-02-01T00:03:06;23.63;;;14.30;;
47481;SDS011;33219;47.410;9.730;2023-02-01T00:05:34;23.07;;;14.10;;
47481;SDS011;33219;47.410;9.730;2023-02-01T00:08:02;24.97;;;13.93;;
47481;SDS011;33219;47.410;9.730;2023-02-01T00:10:29;24.30;;;12.80;;
47481;SDS011;33219;47.410;9.730;2023-02-01T00:12:57;19.63;;;11.93;;
47481;SDS011;33219;47.410;9.730;2023-02-01T00:15:25;19.23;;;13.40;;
47481;SDS011;33219;47.410;9.730;2023-02-01T00:17:53;20.60;;;11.80;;
47481;SDS011;33219;47.410;9.730;2023-02-01T00:20:21;19.20;;;12.27;;
47481;SDS011;33219;47.410;9.730;2023-02-01T00:22:48;18.07;;;11.40;;
47481;SDS011;33219;47.410;9.730;2023-02-01T00:25:16;22.67;;;12.87;;
47481;SDS011;33219;47.410;9.730;2023-02-01T00:27:48;20.97;;;12.20;;
47481;SDS011;33219;47.410;9.730;2023-02-01T00:30:16;22.00;;;12.45;;
47481;SDS011;33219;47.410;9.730;2023-02-01T00:32:44;22.70;;;13.23;;
47481;SDS011;33219;47.410;9.730;2023-02-01T00:35:12;18.00;;;11.13;;
47481;SDS011;33219;47.410;9.730;2023-02-01T00:37:39;21.77;;;11.03;;
47481;SDS011;33219;47.410;9.730;2023-02-01T00:40:07;21.53;;;12.13;;
47481;SDS011;33219;47.410;9.730;2023-02-01T00:42:35;21.57;;;12.40;;
47481;SDS011;33219;47.410;9.730;2023-02-01T00:45:03;20.87;;;13.23;;
47481;SDS011;33219;47.410;9.730;2023-02-01T00:47:31;20.63;;;12.63;;
47481;SDS011;33219;47.410;9.730;2023-02-01T00:49:59;21.57;;;13.00;;
47481;SDS011;33219;47.410;9.730;2023-02-01T00:52:26;19.27;;;11.80;;
47481;SDS011;33219;47.410;9.730;2023-02-01T00:54:54;21.73;;;12.80;;
47481;SDS011;33219;47.410;9.730;2023-02-01T00:57:21;21.30;;;11.80;;
47481;SDS011;33219;47.410;9.730;2023-02-01T00:59:49;14.40;;;9.57;;
47481;SDS011;33219;47.410;9.730;2023-02-01T01:02:17;18.37;;;11.50;;
47481;SDS011;33219;47.410;9.730;2023-02-01T01:04:44;19.07;;;11.47;;
47481;SDS011;33219;47.410;9.730;2023-02-01T01:07:12;18.50;;;11.60;;
47481;SDS011;33219;47.410;9.730;2023-02-01T01:09:40;20.73;;;12.20;;
47481;SDS011;33219;47.410;9.730;2023-02-01T01:12:07;16.73;;;11.03;;
47481;SDS011;33219;47.410;9.730;2023-02-01T01:14:35;16.97;;;10.77;;
47481;SDS011;33219;47.410;9.730;2023-02-01T01:17:02;15.87;;;9.20;;
47481;SDS011;33219;47.410;9.730;2023-02-01T01:19:30;15.77;;;9.80;;
47481;SDS011;33219;47.410;9.730;2023-02-01T01:21:57;17.63;;;9.57;;
47481;SDS011;33219;47.410;9.730;2023-02-01T01:24:25;17.43;;;10.47;;
47481;SDS011;33219;47.410;9.730;2023-02-01T01:26:52;17.77;;;11.43;;
47481;SDS011;33219;47.410;9.730;2023-02-01T01:29:20;16.93;;;10.23;;
47481;SDS011;33219;47.410;9.730;2023-02-01T01:31:48;18.30;;;12.07;;
47481;SDS011;33219;47.410;9.730;2023-02-01T01:34:15;23.33;;;12.33;;
47481;SDS011;33219;47.410;9.730;2023-02-01T01:36:43;20.50;;;12.90;;
47481;SDS011;33219;47.410;9.730;2023-02-01T01:39:11;18.07;;;11.63;;
47481;SDS011;33219;47.410;9.730;2023-02-01T01:41:38;21.30;;;12.37;;
47481;SDS011;33219;47.410;9.730;2023-02-01T01:44:06;21.00;;;11.73;;
47481;SDS011;33219;47.410;9.730;2023-02-01T01:46:36;18.03;;;11.53;;
47481;SDS011;33219;47.410;9.730;2023-02-01T01:49:13;18.73;;;11.97;;
47481;SDS011;33219;47.410;9.730;2023-02-01T01:51:49;17.23;;;12.17;;
47481;SDS011;33219;47.410;9.730;2023-02-01T01:54:29;20.07;;;11.70;;
47481;SDS011;33219;47.410;9.730;2023-02-01T01:57:03;18.52;;;11.60;;
47481;SDS011;33219;47.410;9.730;2023-02-01T01:59:35;20.50;;;12.03;;
47481;SDS011;33219;47.410;9.730;2023-02-01T02:02:04;16.73;;;11.50;;
47481;SDS011;33219;47.410;9.730;2023-02-01T02:04:33;19.57;;;11.47;;
47481;SDS011;33219;47.410;9.730;2023-02-01T02:07:21;16.77;;;11.20;;
47481;SDS011;33219;47.410;9.730;2023-02-01T02:09:38;19.40;;;12.07;;
47481;SDS011;33219;47.410;9.730;2023-02-01T02:12:06;16.03;;;10.37;;
47481;SDS011;33219;47.410;9.730;2023-02-01T02:14:33;18.10;;;10.53;;
47481;SDS011;33219;47.410;9.730;2023-02-01T02:31:14;14.73;;;9.83;;
47481;SDS011;33219;47.410;9.730;2023-02-01T02:34:38;17.00;;;10.23;;
47481;SDS011;33219;47.410;9.730;2023-02-01T02:39:31;16.77;;;10.20;;
47481;SDS011;33219;47.410;9.730;2023-02-01T02:42:14;16.50;;;9.50;;
47481;SDS011;33219;47.410;9.730;2023-02-01T02:45:05;15.77;;;9.87;;
47481;SDS011;33219;47.410;9.730;2023-02-01T02:48:01;14.93;;;8.70;;
47481;SDS011;33219;47.410;9.730;2023-02-01T02:50:38;11.80;;;7.30;;
47481;SDS011;33219;47.410;9.730;2023-02-01T02:53:30;12.37;;;7.90;;
47481;SDS011;33219;47.410;9.730;2023-02-01T02:56:16;16.37;;;8.77;;
47481;SDS011;33219;47.410;9.730;2023-02-01T02:59:05;11.07;;;7.33;;
47481;SDS011;33219;47.410;9.730;2023-02-01T03:01:53;7.77;;;4.83;;
47481;SDS011;33219;47.410;9.730;2023-02-01T03:04:39;9.50;;;5.47;;
47481;SDS011;33219;47.410;9.730;2023-02-01T03:07:11;8.10;;;5.00;;
47481;SDS011;33219;47.410;9.730;2023-02-01T03:09:41;9.07;;;5.13;;
47481;SDS011;33219;47.410;9.730;2023-02-01T03:12:12;10.03;;;5.93;;
47481;SDS011;33219;47.410;9.730;2023-02-01T03:15:04;9.63;;;5.60;;
47481;SDS011;33219;47.410;9.730;2023-02-01T03:17:34;10.83;;;5.30;;
47481;SDS011;33219;47.410;9.730;2023-02-01T03:20:02;9.07;;;5.30;;
47481;SDS011;33219;47.410;9.730;2023-02-01T03:22:32;9.70;;;5.00;;
47481;SDS011;33219;47.410;9.730;2023-02-01T03:25:05;6.43;;;4.20;;
47481;SDS011;33219;47.410;9.730;2023-02-01T03:27:37;6.40;;;4.13;;
47481;SDS011;33219;47.410;9.730;2023-02-01T03:30:22;6.77;;;4.33;;
47481;SDS011;33219;47.410;9.730;2023-02-01T03:32:53;6.97;;;4.50;;
47481;SDS011;33219;47.410;9.730;2023-02-01T03:35:39;7.10;;;4.30;;
47481;SDS011;33219;47.410;9.730;2023-02-01T03:38:23;6.00;;;3.80;;
47481;SDS011;33219;47.410;9.730;2023-02-01T03:43:37;6.07;;;3.77;;
47481;SDS011;33219;47.410;9.730;2023-02-01T03:46:07;7.00;;;4.03;;
47481;SDS011;33219;47.410;9.730;2023-02-01T03:48:36;6.10;;;3.57;;
47481;SDS011;33219;47.410;9.730;2023-02-01T03:51:05;7.57;;;4.37;;
47481;SDS011;33219;47.410;9.730;2023-02-01T03:53:35;6.97;;;4.50;;
47481;SDS011;33219;47.410;9.730;2023-02-01T03:56:05;7.67;;;4.50;;
47481;SDS011;33219;47.410;9.730;2023-02-01T03:58:34;9.93;;;5.83;;
47481;SDS011;33219;47.410;9.730;2023-02-01T04:01:01;12.43;;;6.70;;
47481;SDS011;33219;47.410;9.730;2023-02-01T04:03:29;12.23;;;7.43;;
47481;SDS011;33219;47.410;9.730;2023-02-01T04:05:57;13.03;;;8.43;;
47481;SDS011;33219;47.410;9.730;2023-02-01T04:08:25;13.93;;;8.77;;
47481;SDS011;33219;47.410;9.730;2023-02-01T04:10:53;12.00;;;8.37;;
47481;SDS011;33219;47.410;9.730;2023-02-01T04:13:20;15.83;;;9.10;;
47481;SDS011;33219;47.410;9.730;2023-02-01T04:15:48;14.27;;;8.97;;
47481;SDS011;33219;47.410;9.730;2023-02-01T04:18:15;17.10;;;9.63;;
47481;SDS011;33219;47.410;9.730;2023-02-01T04:20:43;12.50;;;8.47;;
47481;SDS011;33219;47.410;9.730;2023-02-01T04:23:11;16.27;;;9.33;;
47481;SDS011;33219;47.410;9.730;2023-02-01T04:25:38;12.00;;;8.37;;
47481;SDS011;33219;47.410;9.730;2023-02-01T04:28:06;15.40;;;9.40;;
47481;SDS011;33219;47.410;9.730;2023-02-01T04:30:34;14.63;;;9.10;;
47481;SDS011;33219;47.410;9.730;2023-02-01T04:33:02;14.33;;;8.63;;
47481;SDS011;33219;47.410;9.730;2023-02-01T04:35:33;13.83;;;7.97;;
47481;SDS011;33219;47.410;9.730;2023-02-01T04:38:01;14.03;;;8.23;;
47481;SDS011;33219;47.410;9.730;2023-02-01T04:40:28;13.27;;;8.90;;
47481;SDS011;33219;47.410;9.730;2023-02-01T04:42:56;13.47;;;8.23;;
47481;SDS011;33219;47.410;9.730;2023-02-01T04:45:23;11.50;;;8.47;;
47481;SDS011;33219;47.410;9.730;2023-02-01T04:47:51;15.13;;;8.77;;
47481;SDS011;33219;47.410;9.730;2023-02-01T04:50:18;15.87;;;8.97;;
47481;SDS011;33219;47.410;9.730;2023-02-01T04:52:46;16.07;;;9.53;;
47481;SDS011;33219;47.410;9.730;2023-02-01T04:55:14;13.73;;;8.67;;
47481;SDS011;33219;47.410;9.730;2023-02-01T04:57:41;13.20;;;9.00;;
47481;SDS011;33219;47.410;9.730;2023-02-01T05:00:09;12.33;;;8.57;;
47481;SDS011;33219;47.410;9.730;2023-02-01T05:02:39;14.03;;;7.97;;
47481;SDS011;33219;47.410;9.730;2023-02-01T05:05:06;12.97;;;8.43;;
47481;SDS011;33219;47.410;9.730;2023-02-01T05:07:34;14.77;;;8.87;;
47481;SDS011;33219;47.410;9.730;2023-02-01T05:10:02;14.50;;;8.53;;
47481;SDS011;33219;47.410;9.730;2023-02-01T05:12:30;13.03;;;9.13;;
47481;SDS011;33219;47.410;9.730;2023-02-01T05:15:15;12.93;;;8.53;;
47481;SDS011;33219;47.410;9.730;2023-02-01T05:17:42;12.30;;;8.20;;
47481;SDS011;33219;47.410;9.730;2023-02-01T05:20:10;15.83;;;8.90;;
47481;SDS011;33219;47.410;9.730;2023-02-01T05:22:38;14.67;;;9.17;;
47481;SDS011;33219;47.410;9.730;2023-02-01T05:25:05;13.07;;;8.93;;
47481;SDS011;33219;47.410;9.730;2023-02-01T05:27:33;14.53;;;9.40;;
47481;SDS011;33219;47.410;9.730;2023-02-01T05:30:02;14.13;;;9.20;;
47481;SDS011;33219;47.410;9.730;2023-02-01T05:32:31;14.73;;;8.53;;
47481;SDS011;33219;47.410;9.730;2023-02-01T05:35:04;11.67;;;7.97;;
47481;SDS011;33219;47.410;9.730;2023-02-01T05:37:28;14.87;;;8.37;;
47481;SDS011;33219;47.410;9.730;2023-02-01T05:39:56;14.73;;;8.13;;
47481;SDS011;33219;47.410;9.730;2023-02-01T05:42:23;11.80;;;7.23;;
47481;SDS011;33219;47.410;9.730;2023-02-01T05:44:51;10.97;;;6.70;;
47481;SDS011;33219;47.410;9.730;2023-02-01T05:47:18;14.80;;;8.80;;
47481;SDS011;33219;47.410;9.730;2023-02-01T05:49:46;11.20;;;7.40;;
47481;SDS011;33219;47.410;9.730;2023-02-01T05:52:14;11.67;;;7.37;;
47481;SDS011;33219;47.410;9.730;2023-02-01T05:54:43;11.17;;;6.27;;
47481;SDS011;33219;47.410;9.730;2023-02-01T05:57:10;7.13;;;4.50;;
47481;SDS011;33219;47.410;9.730;2023-02-01T05:59:38;9.17;;;5.70;;
47481;SDS011;33219;47.410;9.730;2023-02-01T06:02:11;10.25;;;5.85;;
47481;SDS011;33219;47.410;9.730;2023-02-01T06:04:39;7.23;;;4.60;;
47481;SDS011;33219;47.410;9.730;2023-02-01T06:07:07;6.67;;;4.20;;
47481;SDS011;33219;47.410;9.730;2023-02-01T06:09:36;5.70;;;3.93;;
47481;SDS011;33219;47.410;9.730;2023-02-01T06:12:04;9.33;;;4.50;;
47481;SDS011;33219;47.410;9.730;2023-02-01T06:14:32;9.57;;;4.70;;
47481;SDS011;33219;47.410;9.730;2023-02-01T06:16:59;7.10;;;4.53;;
47481;SDS011;33219;47.410;9.730;2023-02-01T06:19:27;12.50;;;7.10;;
47481;SDS011;33219;47.410;9.730;2023-02-01T06:21:54;12.70;;;7.93;;
47481;SDS011;33219;47.410;9.730;2023-02-01T06:24:22;12.47;;;7.63;;
47481;SDS011;33219;47.410;9.730;2023-02-01T06:26:50;14.37;;;7.53;;
47481;SDS011;33219;47.410;9.730;2023-02-01T06:29:18;15.30;;;7.77;;
47481;SDS011;33219;47.410;9.730;2023-02-01T06:31:45;12.90;;;7.77;;
47481;SDS011;33219;47.410;9.730;2023-02-01T06:34:13;12.73;;;7.07;;
47481;SDS011;33219;47.410;9.730;2023-02-01T06:36:46;15.07;;;7.40;;
47481;SDS011;33219;47.410;9.730;2023-02-01T06:39:21;11.73;;;7.77;;
47481;SDS011;33219;47.410;9.730;2023-02-01T06:41:57;11.40;;;7.63;;
47481;SDS011;33219;47.410;9.730;2023-02-01T06:44:31;12.77;;;8.77;;
47481;SDS011;33219;47.410;9.730;2023-02-01T06:47:08;13.07;;;7.30;;
47481;SDS011;33219;47.410;9.730;2023-02-01T06:56:08;10.23;;;6.83;;
47481;SDS011;33219;47.410;9.730;2023-02-01T06:58:51;10.20;;;6.63;;
47481;SDS011;33219;47.410;9.730;2023-02-01T07:01:23;13.37;;;7.17;;
47481;SDS011;33219;47.410;9.730;2023-02-01T07:04:01;16.03;;;7.73;;
47481;SDS011;33219;47.410;9.730;2023-02-01T07:06:40;13.33;;;8.20;;
47481;SDS011;33219;47.410;9.730;2023-02-01T07:09:16;23.27;;;8.97;;
47481;SDS011;33219;47.410;9.730;2023-02-01T07:11:52;16.83;;;10.30;;
47481;SDS011;33219;47.410;9.730;2023-02-01T07:14:29;12.23;;;8.73;;
47481;SDS011;33219;47.410;9.730;2023-02-01T07:17:02;13.00;;;7.50;;
47481;SDS011;33219;47.410;9.730;2023-02-01T07:19:42;12.87;;;8.70;;
47481;SDS011;33219;47.410;9.730;2023-02-01T07:22:17;21.30;;;9.33;;
47481;SDS011;33219;47.410;9.730;2023-02-01T07:24:54;11.97;;;8.20;;
47481;SDS011;33219;47.410;9.730;2023-02-01T07:27:28;14.53;;;7.70;;
47481;SDS011;33219;47.410;9.730;2023-02-01T07:30:03;16.80;;;7.93;;
47481;SDS011;33219;47.410;9.730;2023-02-01T07:32:45;14.30;;;7.80;;
47481;SDS011;33219;47.410;9.730;2023-02-01T07:37:52;12.17;;;6.83;;
47481;SDS011;33219;47.410;9.730;2023-02-01T07:40:26;14.80;;;6.00;;
47481;SDS011;33219;47.410;9.730;2023-02-01T07:43:02;10.33;;;5.77;;
47481;SDS011;33219;47.410;9.730;2023-02-01T07:45:51;12.23;;;5.80;;
47481;SDS011;33219;47.410;9.730;2023-02-01T07:51:45;7.90;;;5.23;;
47481;SDS011;33219;47.410;9.730;2023-02-01T07:54:22;10.57;;;5.20;;
47481;SDS011;33219;47.410;9.730;2023-02-01T07:56:58;8.33;;;5.10;;
47481;SDS011;33219;47.410;9.730;2023-02-01T07:59:32;9.50;;;5.47;;
47481;SDS011;33219;47.410;9.730;2023-02-01T08:02:10;9.27;;;5.67;;
47481;SDS011;33219;47.410;9.730;2023-02-01T08:04:45;10.87;;;5.60;;
47481;SDS011;33219;47.410;9.730;2023-02-01T08:07:19;10.57;;;6.00;;
47481;SDS011;33219;47.410;9.730;2023-02-01T08:09:55;12.30;;;6.33;;
47481;SDS011;33219;47.410;9.730;2023-02-01T08:12:29;10.93;;;5.77;;
47481;SDS011;33219;47.410;9.730;2023-02-01T08:15:04;10.27;;;5.33;;
47481;SDS011;33219;47.410;9.730;2023-02-01T08:17:39;9.20;;;4.80;;
47481;SDS011;33219;47.410;9.730;2023-02-01T08:20:19;13.90;;;5.60;;
47481;SDS011;33219;47.410;9.730;2023-02-01T08:22:54;9.80;;;5.13;;
47481;SDS011;33219;47.410;9.730;2023-02-01T08:25:28;15.33;;;5.73;;
47481;SDS011;33219;47.410;9.730;2023-02-01T08:28:02;11.10;;;5.40;;
47481;SDS011;33219;47.410;9.730;2023-02-01T08:30:39;10.37;;;5.80;;
47481;SDS011;33219;47.410;9.730;2023-02-01T08:39:44;9.73;;;5.17;;
47481;SDS011;33219;47.410;9.730;2023-02-01T08:42:16;11.77;;;5.43;;
47481;SDS011;33219;47.410;9.730;2023-02-01T08:45:09;7.37;;;4.90;;
47481;SDS011;33219;47.410;9.730;2023-02-01T08:47:49;8.23;;;5.17;;
47481;SDS011;33219;47.410;9.730;2023-02-01T08:50:27;8.10;;;5.43;;
47481;SDS011;33219;47.410;9.730;2023-02-01T08:53:13;9.47;;;5.70;;
47481;SDS011;33219;47.410;9.730;2023-02-01T08:58:48;9.50;;;5.37;;
47481;SDS011;33219;47.410;9.730;2023-02-01T09:01:18;11.33;;;6.13;;
47481;SDS011;33219;47.410;9.730;2023-02-01T09:03:52;11.30;;;5.10;;
47481;SDS011;33219;47.410;9.730;2023-02-01T09:06:29;10.03;;;5.40;;
47481;SDS011;33219;47.410;9.730;2023-02-01T09:09:09;13.50;;;6.10;;
47481;SDS011;33219;47.410;9.730;2023-02-01T09:18:05;14.87;;;7.93;;
47481;SDS011;33219;47.410;9.730;2023-02-01T09:20:56;14.73;;;7.93;;
47481;SDS011;33219;47.410;9.730;2023-02-01T09:26:52;11.87;;;5.97;;
47481;SDS011;33219;47.410;9.730;2023-02-01T09:32:53;14.50;;;5.47;;
47481;SDS011;33219;47.410;9.730;2023-02-01T09:35:23;10.95;;;5.65;;
47481;SDS011;33219;47.410;9.730;2023-02-01T09:37:59;12.63;;;6.63;;
47481;SDS011;33219;47.410;9.730;2023-02-01T09:40:39;11.33;;;6.20;;
47481;SDS011;33219;47.410;9.730;2023-02-01T09:43:21;12.70;;;5.27;;
47481;SDS011;33219;47.410;9.730;2023-02-01T11:05:14;7.87;;;4.22;;
47481;SDS011;33219;47.410;9.730;2023-02-01T11:11:19;14.03;;;4.80;;
47481;SDS011;33219;47.410;9.730;2023-02-01T11:19:36;9.80;;;4.30;;
47481;SDS011;33219;47.410;9.730;2023-02-01T11:21:59;9.60;;;4.12;;
47481;SDS011;33219;47.410;9.730;2023-02-01T11:24:33;9.45;;;4.40;;
47481;SDS011;33219;47.410;9.730;2023-02-01T11:27:13;9.13;;;4.80;;
47481;SDS011;33219;47.410;9.730;2023-02-01T11:36:45;9.58;;;4.78;;
47481;SDS011;33219;47.410;9.730;2023-02-01T11:39:19;6.30;;;3.80;;
47481;SDS011;33219;47.410;9.730;2023-02-01T11:42:13;14.85;;;5.40;;
47481;SDS011;33219;47.410;9.730;2023-02-01T11:47:58;11.80;;;5.08;;
47481;SDS011;33219;47.410;9.730;2023-02-01T11:56:21;8.85;;;4.53;;
47481;SDS011;33219;47.410;9.730;2023-02-01T12:07:13;13.25;;;5.05;;
47481;SDS011;33219;47.410;9.730;2023-02-01T12:09:51;14.35;;;6.20;;
47481;SDS011;33219;47.410;9.730;2023-02-01T12:12:50;12.60;;;5.47;;
47481;SDS011;33219;47.410;9.730;2023-02-01T12:15:41;18.17;;;5.97;;
47481;SDS011;33219;47.410;9.730;2023-02-01T12:21:23;15.93;;;6.45;;
47481;SDS011;33219;47.410;9.730;2023-02-01T12:30:25;11.68;;;4.58;;
47481;SDS011;33219;47.410;9.730;2023-02-01T12:33:04;9.10;;;5.03;;
47481;SDS011;33219;47.410;9.730;2023-02-01T12:43:53;6.28;;;3.60;;
47481;SDS011;33219;47.410;9.730;2023-02-01T12:46:32;8.18;;;3.92;;
47481;SDS011;33219;47.410;9.730;2023-02-01T12:49:03;10.35;;;4.30;;
47481;SDS011;33219;47.410;9.730;2023-02-01T12:51:36;8.60;;;4.67;;
47481;SDS011;33219;47.410;9.730;2023-02-01T12:56:41;13.55;;;5.22;;
47481;SDS011;33219;47.410;9.730;2023-02-01T12:59:18;9.03;;;5.42;;
47481;SDS011;33219;47.410;9.730;2023-02-01T13:01:56;11.60;;;4.70;;
47481;SDS011;33219;47.410;9.730;2023-02-01T13:07:09;10.88;;;5.15;;
47481;SDS011;33219;47.410;9.730;2023-02-01T13:17:31;13.65;;;6.22;;
47481;SDS011;33219;47.410;9.730;2023-02-01T13:22:45;14.93;;;6.10;;
47481;SDS011;33219;47.410;9.730;2023-02-01T13:25:28;15.32;;;6.62;;
47481;SDS011;33219;47.410;9.730;2023-02-01T13:27:58;13.38;;;6.17;;
47481;SDS011;33219;47.410;9.730;2023-02-01T13:30:37;11.53;;;5.05;;
47481;SDS011;33219;47.410;9.730;2023-02-01T13:33:14;9.45;;;4.20;;
47481;SDS011;33219;47.410;9.730;2023-02-01T13:42:35;6.53;;;2.47;;
47481;SDS011;33219;47.410;9.730;2023-02-01T13:44:22;5.15;;;2.50;;
47481;SDS011;33219;47.410;9.730;2023-02-01T13:46:57;6.30;;;2.85;;
47481;SDS011;33219;47.410;9.730;2023-02-01T13:49:27;7.30;;;2.85;;
47481;SDS011;33219;47.410;9.730;2023-02-01T13:51:57;5.55;;;3.42;;
47481;SDS011;33219;47.410;9.730;2023-02-01T13:54:27;8.13;;;2.95;;
47481;SDS011;33219;47.410;9.730;2023-02-01T14:05:10;5.42;;;2.70;;
47481;SDS011;33219;47.410;9.730;2023-02-01T14:21:21;7.03;;;3.60;;
47481;SDS011;33219;47.410;9.730;2023-02-01T14:34:49;5.62;;;3.10;;
47481;SDS011;33219;47.410;9.730;2023-02-01T14:37:13;4.87;;;3.20;;
47481;SDS011;33219;47.410;9.730;2023-02-01T14:39:56;4.85;;;2.92;;
47481;SDS011;33219;47.410;9.730;2023-02-01T14:50:22;7.08;;;2.90;;
47481;SDS011;33219;47.410;9.730;2023-02-01T14:55:51;5.10;;;2.70;;
47481;SDS011;33219;47.410;9.730;2023-02-01T15:03:45;4.33;;;2.77;;
47481;SDS011;33219;47.410;9.730;2023-02-01T15:06:20;6.62;;;3.10;;
47481;SDS011;33219;47.410;9.730;2023-02-01T15:08:49;4.03;;;2.60;;
47481;SDS011;33219;47.410;9.730;2023-02-01T15:11:20;5.70;;;2.80;;
47481;SDS011;33219;47.410;9.730;2023-02-01T15:13:52;4.85;;;2.42;;
47481;SDS011;33219;47.410;9.730;2023-02-01T15:16:22;3.72;;;2.20;;
47481;SDS011;33219;47.410;9.730;2023-02-01T15:19:06;3.87;;;2.20;;
47481;SDS011;33219;47.410;9.730;2023-02-01T15:21:44;5.17;;;3.83;;
47481;SDS011;33219;47.410;9.730;2023-02-01T15:24:14;9.95;;;4.80;;
47481;SDS011;33219;47.410;9.730;2023-02-01T15:26:43;6.08;;;4.08;;
47481;SDS011;33219;47.410;9.730;2023-02-01T15:29:11;10.55;;;4.28;;
47481;SDS011;33219;47.410;9.730;2023-02-01T15:31:41;9.58;;;4.50;;
47481;SDS011;33219;47.410;9.730;2023-02-01T15:34:13;5.30;;;3.10;;
47481;SDS011;33219;47.410;9.730;2023-02-01T15:36:41;9.20;;;3.10;;
47481;SDS011;33219;47.410;9.730;2023-02-01T15:39:23;6.90;;;3.25;;
47481;SDS011;33219;47.410;9.730;2023-02-01T15:41:56;6.22;;;3.52;;
47481;SDS011;33219;47.410;9.730;2023-02-01T15:47:05;8.85;;;3.65;;
47481;SDS011;33219;47.410;9.730;2023-02-01T15:49:45;13.98;;;4.53;;
47481;SDS011;33219;47.410;9.730;2023-02-01T15:52:22;9.15;;;4.12;;
47481;SDS011;33219;47.410;9.730;2023-02-01T15:54:55;8.65;;;4.28;;
47481;SDS011;33219;47.410;9.730;2023-02-01T15:57:29;10.03;;;4.30;;
47481;SDS011;33219;47.410;9.730;2023-02-01T16:00:04;11.30;;;4.78;;
47481;SDS011;33219;47.410;9.730;2023-02-01T16:02:34;9.10;;;4.40;;
47481;SDS011;33219;47.410;9.730;2023-02-01T16:06:27;11.30;;;4.83;;
47481;SDS011;33219;47.410;9.730;2023-02-01T16:07:58;9.38;;;4.58;;
47481;SDS011;33219;47.410;9.730;2023-02-01T16:10:30;10.70;;;5.17;;
47481;SDS011;33219;47.410;9.730;2023-02-01T16:13:00;9.53;;;4.15;;
47481;SDS011;33219;47.410;9.730;2023-02-01T16:15:28;9.98;;;4.53;;
47481;SDS011;33219;47.410;9.730;2023-02-01T16:17:56;9.50;;;4.03;;
47481;SDS011;33219;47.410;9.730;2023-02-01T16:20:23;8.55;;;4.00;;
47481;SDS011;33219;47.410;9.730;2023-02-01T16:22:55;5.53;;;3.15;;
47481;SDS011;33219;47.410;9.730;2023-02-01T16:25:23;7.78;;;3.02;;
47481;SDS011;33219;47.410;9.730;2023-02-01T16:27:51;6.97;;;3.65;;
47481;SDS011;33219;47.410;9.730;2023-02-01T16:30:18;4.53;;;2.50;;
47481;SDS011;33219;47.410;9.730;2023-02-01T16:32:56;7.37;;;2.90;;
47481;SDS011;33219;47.410;9.730;2023-02-01T16:35:26;5.87;;;2.95;;
47481;SDS011;33219;47.410;9.730;2023-02-01T16:40:35;5.58;;;3.27;;
47481;SDS011;33219;47.410;9.730;2023-02-01T16:43:20;5.75;;;2.70;;
47481;SDS011;33219;47.410;9.730;2023-02-01T16:45:49;8.85;;;3.05;;
47481;SDS011;33219;47.410;9.730;2023-02-01T16:48:23;6.13;;;2.93;;
47481;SDS011;33219;47.410;9.730;2023-02-01T16:50:55;6.28;;;2.95;;
47481;SDS011;33219;47.410;9.730;2023-02-01T16:53:26;7.70;;;3.42;;
47481;SDS011;33219;47.410;9.730;2023-02-01T16:55:55;8.50;;;4.08;;
47481;SDS011;33219;47.410;9.730;2023-02-01T16:58:24;9.48;;;4.17;;
47481;SDS011;33219;47.410;9.730;2023-02-01T17:00:53;8.95;;;3.65;;
47481;SDS011;33219;47.410;9.730;2023-02-01T17:03:21;9.07;;;3.50;;
47481;SDS011;33219;47.410;9.730;2023-02-01T17:05:55;9.35;;;3.33;;
47481;SDS011;33219;47.410;9.730;2023-02-01T17:08:31;8.30;;;4.50;;
47481;SDS011;33219;47.410;9.730;2023-02-01T17:10:59;4.30;;;2.90;;
47481;SDS011;33219;47.410;9.730;2023-02-01T17:13:27;8.43;;;2.95;;
47481;SDS011;33219;47.410;9.730;2023-02-01T17:15:59;7.70;;;3.00;;
47481;SDS011;33219;47.410;9.730;2023-02-01T17:18:29;8.50;;;3.77;;
47481;SDS011;33219;47.410;9.730;2023-02-01T17:21:00;7.42;;;3.15;;
47481;SDS011;33219;47.410;9.730;2023-02-01T17:23:30;6.70;;;3.23;;
47481;SDS011;33219;47.410;9.730;2023-02-01T17:25:59;6.92;;;3.22;;
47481;SDS011;33219;47.410;9.730;2023-02-01T17:28:28;5.45;;;2.92;;
47481;SDS011;33219;47.410;9.730;2023-02-01T17:30:56;8.38;;;3.37;;
47481;SDS011;33219;47.410;9.730;2023-02-01T17:33:25;7.70;;;3.30;;
47481;SDS011;33219;47.410;9.730;2023-02-01T17:35:55;10.23;;;3.72;;
47481;SDS011;33219;47.410;9.730;2023-02-01T17:38:23;7.50;;;3.20;;
47481;SDS011;33219;47.410;9.730;2023-02-01T17:40:52;9.90;;;3.47;;
47481;SDS011;33219;47.410;9.730;2023-02-01T17:43:20;8.45;;;3.40;;
47481;SDS011;33219;47.410;9.730;2023-02-01T17:46:01;7.40;;;3.27;;
47481;SDS011;33219;47.410;9.730;2023-02-01T17:48:27;5.58;;;2.80;;
47481;SDS011;33219;47.410;9.730;2023-02-01T17:50:55;5.45;;;2.52;;
47481;SDS011;33219;47.410;9.730;2023-02-01T17:53:26;8.13;;;2.83;;
47481;SDS011;33219;47.410;9.730;2023-02-01T17:55:55;7.30;;;2.62;;
47481;SDS011;33219;47.410;9.730;2023-02-01T17:58:23;7.17;;;2.37;;
47481;SDS011;33219;47.410;9.730;2023-02-01T18:00:53;4.70;;;2.47;;
47481;SDS011;33219;47.410;9.730;2023-02-01T18:03:27;10.20;;;2.60;;
47481;SDS011;33219;47.410;9.730;2023-02-01T18:05:57;6.13;;;2.80;;
47481;SDS011;33219;47.410;9.730;2023-02-01T18:08:27;6.67;;;2.47;;
47481;SDS011;33219;47.410;9.730;2023-02-01T18:10:58;8.23;;;2.50;;
47481;SDS011;33219;47.410;9.730;2023-02-01T18:13:28;5.90;;;2.62;;
47481;SDS011;33219;47.410;9.730;2023-02-01T18:16:02;7.80;;;3.12;;
47481;SDS011;33219;47.410;9.730;2023-02-01T18:18:28;6.03;;;2.40;;
47481;SDS011;33219;47.410;9.730;2023-02-01T18:20:58;5.87;;;2.30;;
47481;SDS011;33219;47.410;9.730;2023-02-01T18:23:26;10.50;;;2.90;;
47481;SDS011;33219;47.410;9.730;2023-02-01T18:25:54;8.00;;;2.98;;
47481;SDS011;33219;47.410;9.730;2023-02-01T18:28:22;4.60;;;2.40;;
47481;SDS011;33219;47.410;9.730;2023-02-01T18:30:50;7.10;;;2.37;;
47481;SDS011;33219;47.410;9.730;2023-02-01T18:33:19;8.90;;;2.70;;
47481;SDS011;33219;47.410;9.730;2023-02-01T18:35:47;6.97;;;2.90;;
47481;SDS011;33219;47.410;9.730;2023-02-01T18:38:17;6.62;;;3.50;;
47481;SDS011;33219;47.410;9.730;2023-02-01T18:40:47;7.07;;;3.50;;
47481;SDS011;33219;47.410;9.730;2023-02-01T18:43:17;12.53;;;3.90;;
47481;SDS011;33219;47.410;9.730;2023-02-01T18:45:47;10.55;;;4.35;;
47481;SDS011;33219;47.410;9.730;2023-02-01T18:48:15;12.30;;;4.33;;
47481;SDS011;33219;47.410;9.730;2023-02-01T18:50:45;8.13;;;4.17;;
47481;SDS011;33219;47.410;9.730;2023-02-01T18:53:31;6.70;;;4.37;;
47481;SDS011;33219;47.410;9.730;2023-02-01T18:55:59;8.07;;;3.40;;
47481;SDS011;33219;47.410;9.730;2023-02-01T18:58:28;8.47;;;3.73;;
47481;SDS011;33219;47.410;9.730;2023-02-01T19:00:59;7.90;;;3.13;;
47481;SDS011;33219;47.410;9.730;2023-02-01T19:03:27;8.30;;;3.50;;
47481;SDS011;33219;47.410;9.730;2023-02-01T19:05:56;9.17;;;3.50;;
47481;SDS011;33219;47.410;9.730;2023-02-01T19:08:24;7.83;;;3.10;;
47481;SDS011;33219;47.410;9.730;2023-02-01T19:10:52;6.83;;;2.67;;
47481;SDS011;33219;47.410;9.730;2023-02-01T19:13:21;16.40;;;5.80;;
47481;SDS011;33219;47.410;9.730;2023-02-01T19:15:51;14.53;;;6.53;;
47481;SDS011;33219;47.410;9.730;2023-02-01T19:18:19;11.90;;;5.10;;
47481;SDS011;33219;47.410;9.730;2023-02-01T19:20:47;10.10;;;4.95;;
47481;SDS011;33219;47.410;9.730;2023-02-01T19:23:17;7.15;;;4.42;;
47481;SDS011;33219;47.410;9.730;2023-02-01T19:25:45;8.60;;;4.25;;
47481;SDS011;33219;47.410;9.730;2023-02-01T19:28:14;8.03;;;4.50;;